createdAt,value
2023-05-02T00:01:05.296Z,96.97
2023-05-02T00:03:32.979Z,97.10
2023-05-02T00:06:00.408Z,97.28
2023-05-02T00:08:27.477Z,98.18
2023-05-02T00:10:54.299Z,98.58
2023-05-02T00:13:21.074Z,98.75
2023-05-02T00:15:47.741Z,98.15
2023-05-02T00:18:14.802Z,98.92
2023-05-02T00:20:42.250Z,99.46
2023-05-02T00:23:09.233Z,100.00
2023-05-02T00:25:36.100Z,99.50
2023-05-02T00:28:02.724Z,99.65
2023-05-02T00:30:29.344Z,99.99
2023-05-02T00:32:56.130Z,100.00
2023-05-02T00:35:22.799Z,99.80
2023-05-02T00:37:49.432Z,99.99
2023-05-02T00:40:16.238Z,99.92
2023-05-02T00:42:42.852Z,100.00
2023-05-02T00:45:09.793Z,100.00
2023-05-02T00:47:36.511Z,100.00
2023-05-02T00:50:05.568Z,100.00
2023-05-02T00:52:33.031Z,100.00
2023-05-02T00:54:59.788Z,99.99
2023-05-02T00:57:26.820Z,99.88
2023-05-02T00:59:53.434Z,99.91
2023-05-02T01:02:51.318Z,100.00
2023-05-02T01:05:31.053Z,100.00
2023-05-02T01:08:24.101Z,100.00
2023-05-02T01:11:21.457Z,100.00
2023-05-02T01:13:48.072Z,100.00
2023-05-02T01:16:14.920Z,100.00
2023-05-02T01:18:42.108Z,100.00
2023-05-02T01:21:10.535Z,100.00
2023-05-02T01:24:16.800Z,100.00
2023-05-02T01:26:50.183Z,100.00
2023-05-02T01:29:17.113Z,100.00
2023-05-02T01:31:46.126Z,100.00
2023-05-02T01:34:12.761Z,100.00
2023-05-02T01:36:46.678Z,100.00
2023-05-02T01:39:14.683Z,100.00
2023-05-02T01:41:41.805Z,100.00
2023-05-02T01:44:08.563Z,100.00
2023-05-02T01:46:36.833Z,100.00
2023-05-02T01:49:04.326Z,100.00
2023-05-02T01:51:33.025Z,100.00
2023-05-02T01:54:07.388Z,100.00
2023-05-02T01:56:36.994Z,100.00
2023-05-02T01:59:09.116Z,100.00
2023-05-02T02:01:36.640Z,100.00
2023-05-02T02:04:03.697Z,100.00
2023-05-02T02:06:31.571Z,100.00
2023-05-02T02:08:59.207Z,100.00
2023-05-02T02:11:37.913Z,100.00
2023-05-02T02:14:08.689Z,100.00
2023-05-02T02:16:38.187Z,100.00
2023-05-02T02:19:07.424Z,100.00
2023-05-02T02:21:34.984Z,100.00
2023-05-02T02:24:02.066Z,100.00
2023-05-02T02:26:28.768Z,100.00
2023-05-02T02:28:56.298Z,100.00
2023-05-02T02:31:25.786Z,100.00
2023-05-02T02:33:52.590Z,100.00
2023-05-02T02:36:25.412Z,100.00
2023-05-02T02:38:58.103Z,100.00
2023-05-02T02:41:31.920Z,100.00
2023-05-02T02:44:33.953Z,100.00
2023-05-02T02:47:12.264Z,100.00
2023-05-02T02:49:43.268Z,100.00
2023-05-02T02:52:24.920Z,100.00
2023-05-02T02:54:56.755Z,99.94
2023-05-02T02:57:52.727Z,100.00
2023-05-02T03:00:21.479Z,100.00
2023-05-02T03:02:48.413Z,100.00
2023-05-02T03:05:15.214Z,100.00
2023-05-02T03:07:41.902Z,100.00
2023-05-02T03:10:09.305Z,100.00
2023-05-02T03:12:36.270Z,100.00
2023-05-02T03:15:29.231Z,100.00
2023-05-02T03:17:56.185Z,100.00
2023-05-02T03:20:23.654Z,100.00
2023-05-02T03:22:50.367Z,100.00
2023-05-02T03:25:17.308Z,100.00
2023-05-02T03:27:45.198Z,100.00
2023-05-02T03:30:12.342Z,100.00
2023-05-02T03:32:39.046Z,100.00
2023-05-02T03:35:06.828Z,100.00
2023-05-02T03:37:35.357Z,100.00
2023-05-02T03:40:02.616Z,100.00
2023-05-02T03:42:29.824Z,100.00
2023-05-02T03:44:57.824Z,100.00
2023-05-02T03:47:26.081Z,100.00
2023-05-02T03:49:53.266Z,100.00
2023-05-02T03:52:19.970Z,100.00
2023-05-02T03:54:47.176Z,100.00
2023-05-02T03:57:14.144Z,100.00
2023-05-02T03:59:42.919Z,100.00
2023-05-02T04:02:12.943Z,100.00
2023-05-02T04:04:45.267Z,100.00
2023-05-02T04:07:18.533Z,100.00
2023-05-02T04:09:48.850Z,100.00
2023-05-02T04:12:16.320Z,100.00
2023-05-02T04:14:46.408Z,99.82
2023-05-02T04:17:15.666Z,96.51
2023-05-02T04:19:45.817Z,87.78
2023-05-02T04:22:13.091Z,85.36
2023-05-02T04:24:44.614Z,83.91
2023-05-02T04:27:13.690Z,82.49
2023-05-02T04:29:42.257Z,81.13
2023-05-02T04:32:10.331Z,80.49
2023-05-02T04:34:37.229Z,80.08
2023-05-02T04:37:04.067Z,76.27
2023-05-02T04:39:32.009Z,74.36
2023-05-02T04:42:05.149Z,73.04
2023-05-02T04:44:36.683Z,71.56
2023-05-02T04:47:04.684Z,70.52
2023-05-02T04:49:32.581Z,69.24
2023-05-02T04:51:59.322Z,67.99
2023-05-02T04:54:28.415Z,67.54
2023-05-02T04:57:00.237Z,66.11
2023-05-02T04:59:28.340Z,64.86
2023-05-02T05:01:58.780Z,64.83
2023-05-02T05:04:25.856Z,64.20
2023-05-02T05:06:52.940Z,63.41
2023-05-02T05:09:20.761Z,63.29
2023-05-02T05:11:47.468Z,62.85
2023-05-02T05:14:14.953Z,62.33
2023-05-02T05:16:44.660Z,60.83
2023-05-02T05:19:12.007Z,59.96
2023-05-02T05:21:39.229Z,59.32
2023-05-02T05:24:06.973Z,58.78
2023-05-02T05:26:33.590Z,58.28
2023-05-02T05:29:00.273Z,58.03
2023-05-02T05:31:31.864Z,56.72
2023-05-02T05:34:01.350Z,56.95
2023-05-02T05:36:28.928Z,56.77
2023-05-02T05:38:56.612Z,55.07
2023-05-02T05:41:24.722Z,55.17
2023-05-02T05:43:57.002Z,54.49
2023-05-02T05:46:25.483Z,53.82
2023-05-02T05:48:52.319Z,53.23
2023-05-02T05:51:19.450Z,53.35
2023-05-02T05:53:46.379Z,52.73
2023-05-02T05:56:13.984Z,52.06
2023-05-02T05:58:45.854Z,51.38
2023-05-02T06:01:14.065Z,51.22
2023-05-02T06:03:41.135Z,50.95
2023-05-02T06:06:08.075Z,51.19
2023-05-02T06:08:34.828Z,51.96
2023-05-02T06:11:01.519Z,50.76
2023-05-02T06:13:28.192Z,50.93
2023-05-02T06:15:55.338Z,51.44
2023-05-02T06:18:22.398Z,51.87
2023-05-02T06:20:49.059Z,51.87
2023-05-02T06:23:15.727Z,51.05
2023-05-02T06:25:42.655Z,51.45
2023-05-02T06:28:09.662Z,51.40
2023-05-02T06:30:36.600Z,51.36
2023-05-02T06:33:06.567Z,51.92
2023-05-02T06:35:33.296Z,51.13
2023-05-02T06:37:59.933Z,51.12
2023-05-02T06:40:26.801Z,50.91
2023-05-02T06:42:53.497Z,51.11
2023-05-02T06:45:20.098Z,51.06
2023-05-02T06:47:46.792Z,50.49
2023-05-02T06:50:13.444Z,50.60
2023-05-02T06:52:40.158Z,50.90
2023-05-02T06:55:07.701Z,50.51
2023-05-02T06:57:34.298Z,50.31
2023-05-02T07:00:01.522Z,50.36
2023-05-02T07:02:28.719Z,50.34
2023-05-02T07:04:55.639Z,49.99
2023-05-02T07:07:22.394Z,49.48
2023-05-02T07:09:49.077Z,49.07
2023-05-02T07:12:15.693Z,50.61
2023-05-02T07:14:42.687Z,49.95
2023-05-02T07:17:09.847Z,49.58
2023-05-02T07:19:37.109Z,49.30
2023-05-02T07:22:03.808Z,48.08
2023-05-02T07:24:30.468Z,47.50
2023-05-02T07:26:57.159Z,47.85
2023-05-02T07:29:23.877Z,46.66
2023-05-02T07:31:50.774Z,46.11
2023-05-02T07:34:17.424Z,45.38
2023-05-02T07:36:44.019Z,45.11
2023-05-02T07:39:10.683Z,45.81
2023-05-02T07:41:37.538Z,44.93
2023-05-02T07:44:04.287Z,45.29
2023-05-02T07:46:31.510Z,44.44
2023-05-02T07:48:58.326Z,44.01
2023-05-02T07:51:26.390Z,44.96
2023-05-02T07:53:54.495Z,44.63
2023-05-02T07:56:21.878Z,44.08
2023-05-02T07:58:48.539Z,44.30
2023-05-02T08:01:15.175Z,43.67
2023-05-02T08:03:41.948Z,43.09
2023-05-02T08:06:09.856Z,43.62
2023-05-02T08:08:37.144Z,43.66
2023-05-02T08:11:04.109Z,43.02
2023-05-02T08:13:30.747Z,42.47
2023-05-02T08:16:00.592Z,42.29
2023-05-02T08:18:27.405Z,42.04
2023-05-02T08:20:56.144Z,42.29
2023-05-02T08:23:23.020Z,42.61
2023-05-02T08:25:49.743Z,42.88
2023-05-02T08:28:16.439Z,43.29
2023-05-02T08:30:45.313Z,42.09
2023-05-02T08:33:11.990Z,42.17
2023-05-02T08:35:38.913Z,41.88
2023-05-02T08:38:05.586Z,42.38
2023-05-02T08:40:41.584Z,41.89
2023-05-02T08:43:11.712Z,41.95
2023-05-02T08:45:42.895Z,41.29
2023-05-02T08:48:11.108Z,40.56
2023-05-02T08:50:42.629Z,41.25
2023-05-02T08:53:09.628Z,40.88
2023-05-02T08:55:39.727Z,40.74
2023-05-02T08:58:07.299Z,41.00
2023-05-02T09:00:33.926Z,40.70
2023-05-02T09:03:28.293Z,40.38
2023-05-02T09:06:04.449Z,41.37
2023-05-02T09:08:31.181Z,41.37
2023-05-02T09:10:58.041Z,40.84
2023-05-02T09:13:35.316Z,40.01
2023-05-02T09:16:09.666Z,40.12
2023-05-02T09:18:37.284Z,39.81
2023-05-02T11:14:07.331Z,35.89
2023-05-02T11:16:53.668Z,35.66
2023-05-02T11:19:20.708Z,36.05
2023-05-02T11:21:47.318Z,35.52
2023-05-02T11:24:37.692Z,35.99
2023-05-02T11:27:29.419Z,35.59
2023-05-02T11:30:00.386Z,35.68
2023-05-02T11:32:45.677Z,35.61
2023-05-02T11:35:19.798Z,37.36
2023-05-02T11:38:13.703Z,36.74
2023-05-02T11:40:40.544Z,36.26
2023-05-02T11:43:15.504Z,35.41
2023-05-02T11:45:42.947Z,35.29
2023-05-02T11:48:15.110Z,35.11
2023-05-02T11:50:48.668Z,34.86
2023-05-02T11:53:18.170Z,35.80
2023-05-02T11:55:49.752Z,37.01
2023-05-02T11:58:17.644Z,36.35
2023-05-02T12:00:48.038Z,36.38
2023-05-02T12:06:19.462Z,35.14
2023-05-02T12:08:46.926Z,35.30
2023-05-02T12:11:15.840Z,34.86
2023-05-02T12:13:47.307Z,34.87
2023-05-02T12:16:14.763Z,35.26
2023-05-02T12:18:41.814Z,34.96
2023-05-02T12:21:08.525Z,34.66
2023-05-02T12:23:37.464Z,33.99
2023-05-02T12:26:22.255Z,34.66
2023-05-02T12:28:50.869Z,34.81
2023-05-02T12:31:17.613Z,33.33
2023-05-02T12:33:44.278Z,33.31
2023-05-02T12:36:11.478Z,32.93
2023-05-02T12:38:38.114Z,32.48
2023-05-02T12:41:04.891Z,32.63
2023-05-02T12:43:45.993Z,33.74
2023-05-02T12:46:12.607Z,33.57
2023-05-02T12:48:39.239Z,33.90
2023-05-02T12:51:06.005Z,33.20
2023-05-02T12:53:42.789Z,33.18
2023-05-02T12:56:10.854Z,32.51
2023-05-02T12:58:42.787Z,32.18
2023-05-02T13:01:09.992Z,32.22
2023-05-02T13:03:36.887Z,32.02
2023-05-02T13:06:03.943Z,32.33
2023-05-02T13:08:30.788Z,32.32
2023-05-02T13:10:57.759Z,32.03
2023-05-02T13:13:24.365Z,32.11
2023-05-02T13:15:50.950Z,32.53
2023-05-02T13:18:18.213Z,32.08
2023-05-02T13:20:45.108Z,31.56
2023-05-02T13:23:12.116Z,31.73
2023-05-02T13:25:38.755Z,31.77
2023-05-02T13:28:06.433Z,32.19
2023-05-02T13:30:33.416Z,32.39
2023-05-02T13:33:28.423Z,31.91
2023-05-02T13:35:55.913Z,32.01
2023-05-02T13:38:22.697Z,32.22
2023-05-02T13:40:49.967Z,32.83
2023-05-02T13:43:16.898Z,32.69
2023-05-02T13:45:43.775Z,32.25
2023-05-02T13:48:10.694Z,32.17
2023-05-02T13:50:39.144Z,32.66
2023-05-02T13:53:05.808Z,32.21
2023-05-02T13:55:32.553Z,32.30
2023-05-02T13:57:59.236Z,32.41
2023-05-02T14:00:28.021Z,32.33
2023-05-02T14:02:55.735Z,32.29
2023-05-02T14:05:22.468Z,32.27
2023-05-02T14:07:49.083Z,32.35
2023-05-02T14:10:15.750Z,32.37
2023-05-02T14:12:42.370Z,32.46
2023-05-02T14:15:09.489Z,32.58
2023-05-02T14:17:36.151Z,32.41
2023-05-02T14:20:03.795Z,32.22
2023-05-02T14:22:31.082Z,32.09
2023-05-02T14:24:57.745Z,32.41
2023-05-02T14:32:29.111Z,33.18
2023-05-02T14:34:55.749Z,32.91
2023-05-02T14:37:22.353Z,33.05
2023-05-02T14:39:54.727Z,32.66
2023-05-02T14:42:23.392Z,33.00
2023-05-02T14:44:50.159Z,32.83
2023-05-02T14:47:16.943Z,32.89
2023-05-02T14:49:43.987Z,32.94
2023-05-02T14:52:10.747Z,32.98
2023-05-02T14:54:37.600Z,33.03
2023-05-02T14:57:04.446Z,33.38
2023-05-02T14:59:31.464Z,33.53
2023-05-02T15:01:58.389Z,33.72
2023-05-02T15:04:27.381Z,33.53
2023-05-02T15:06:55.587Z,33.48
2023-05-02T15:09:23.418Z,33.44
2023-05-02T15:11:50.052Z,33.59
2023-05-02T15:14:16.695Z,33.60
2023-05-02T15:16:43.372Z,33.54
2023-05-02T15:19:10.415Z,33.77
2023-05-02T15:21:37.528Z,33.77
2023-05-02T15:24:04.397Z,34.03
2023-05-02T15:26:31.035Z,33.78
2023-05-02T15:28:57.918Z,33.46
2023-05-02T15:31:24.752Z,33.85
2023-05-02T15:33:51.625Z,33.92
2023-05-02T15:36:18.360Z,34.11
2023-05-02T15:38:44.961Z,33.90
2023-05-02T15:41:11.693Z,34.24
2023-05-02T15:45:23.741Z,34.39
2023-05-02T15:47:51.217Z,34.73
2023-05-02T15:50:17.961Z,34.75
2023-05-02T15:52:44.730Z,34.56
2023-05-02T15:55:13.173Z,34.54
2023-05-02T15:57:39.795Z,34.75
2023-05-02T16:00:07.560Z,34.87
2023-05-02T16:02:34.307Z,35.22
2023-05-02T16:05:01.792Z,35.34
2023-05-02T16:07:28.360Z,35.25
2023-05-02T16:09:54.965Z,35.13
2023-05-02T16:12:21.664Z,35.11
2023-05-02T16:14:48.274Z,35.21
2023-05-02T16:17:14.979Z,35.39
2023-05-02T16:19:41.592Z,35.46
2023-05-02T16:22:08.774Z,35.70
2023-05-02T16:24:35.541Z,36.12
2023-05-02T16:27:02.169Z,36.54
2023-05-02T16:29:28.904Z,36.47
2023-05-02T16:31:55.697Z,36.33
2023-05-02T16:34:23.908Z,36.33
2023-05-02T16:41:07.169Z,36.63
2023-05-02T16:43:34.260Z,36.64
2023-05-02T16:46:05.135Z,37.10
2023-05-02T16:48:32.374Z,37.44
2023-05-02T16:51:01.651Z,37.69
2023-05-02T16:53:30.969Z,38.06
2023-05-02T16:55:59.388Z,37.84
2023-05-02T16:59:03.167Z,38.05
2023-05-02T17:01:43.745Z,38.14
2023-05-02T17:04:10.434Z,38.69
2023-05-02T17:06:37.132Z,39.21
2023-05-02T17:09:04.080Z,39.12
2023-05-02T17:11:30.686Z,39.06
2023-05-02T17:13:57.354Z,40.15
2023-05-02T17:16:24.158Z,40.71
2023-05-02T17:18:50.778Z,40.56
2023-05-02T17:21:17.801Z,41.16
2023-05-02T17:23:44.910Z,41.53
2023-05-02T17:26:15.646Z,41.03
2023-05-02T17:28:43.835Z,41.37
2023-05-02T17:31:11.017Z,41.97
2023-05-02T17:33:37.776Z,42.49
2023-05-02T17:36:04.989Z,42.83
2023-05-02T17:38:32.191Z,43.48
2023-05-02T17:40:58.794Z,43.77
2023-05-02T17:43:25.413Z,44.09
2023-05-02T17:45:52.131Z,43.93
2023-05-02T17:48:19.012Z,44.52
2023-05-02T17:50:45.780Z,44.08
2023-05-02T17:53:12.777Z,44.24
2023-05-02T17:55:39.602Z,45.17
2023-05-02T17:58:06.262Z,45.94
2023-05-02T18:00:32.900Z,45.61
2023-05-02T18:02:59.816Z,46.10
2023-05-02T18:05:26.819Z,46.37
2023-05-02T18:07:53.708Z,46.91
2023-05-02T18:10:20.656Z,47.31
2023-05-02T18:12:47.406Z,47.61
2023-05-02T18:15:14.062Z,47.56
2023-05-02T18:17:40.965Z,47.77
2023-05-02T18:20:10.188Z,47.72
2023-05-02T18:22:37.707Z,47.66
2023-05-02T18:25:05.783Z,47.86
2023-05-02T18:27:33.063Z,48.37
2023-05-02T18:29:59.806Z,48.03
2023-05-02T18:32:26.486Z,48.55
2023-05-02T18:34:53.212Z,49.07
2023-05-02T18:37:19.828Z,49.06
2023-05-02T18:39:46.732Z,49.16
2023-05-02T18:42:14.807Z,49.01
2023-05-02T18:44:41.678Z,49.05
2023-05-02T18:47:08.538Z,48.98
2023-05-02T18:49:35.495Z,49.06
2023-05-02T18:52:03.398Z,49.43
2023-05-02T18:54:30.667Z,48.97
2023-05-02T18:56:57.319Z,49.25
2023-05-02T18:59:24.009Z,49.06
2023-05-02T19:01:50.941Z,49.39
2023-05-02T19:04:18.608Z,49.65
2023-05-02T19:06:45.416Z,50.07
2023-05-02T19:09:15.721Z,50.31
2023-05-02T19:11:42.859Z,51.00
2023-05-02T19:14:09.639Z,51.17
2023-05-02T19:16:38.186Z,51.07
2023-05-02T19:19:05.269Z,50.92
2023-05-02T19:21:31.969Z,52.15
2023-05-02T19:23:58.739Z,51.72
2023-05-02T19:26:25.764Z,52.03
2023-05-02T19:28:52.632Z,52.36
2023-05-02T19:31:21.211Z,52.45
2023-05-02T19:33:54.874Z,53.08
2023-05-02T19:36:22.733Z,53.53
2023-05-02T19:38:51.233Z,53.83
2023-05-02T19:41:18.033Z,54.21
2023-05-02T19:43:44.676Z,54.24
2023-05-02T19:46:11.541Z,54.62
2023-05-02T19:48:38.304Z,54.60
2023-05-02T19:51:05.008Z,54.81
2023-05-02T19:53:32.526Z,54.75
2023-05-02T19:56:00.030Z,55.07
2023-05-02T19:58:27.057Z,55.25
2023-05-02T20:00:53.800Z,55.41
2023-05-02T20:03:21.237Z,55.75
2023-05-02T20:05:49.283Z,55.34
2023-05-02T20:08:16.554Z,55.89
2023-05-02T20:10:46.264Z,56.00
2023-05-02T20:13:12.896Z,56.30
2023-05-02T20:15:39.612Z,56.32
2023-05-02T20:18:06.385Z,56.21
2023-05-02T20:20:33.118Z,57.02
2023-05-02T20:22:59.967Z,56.34
2023-05-02T20:25:26.856Z,57.16
2023-05-02T20:27:53.872Z,56.47
2023-05-02T20:30:20.879Z,57.52
2023-05-02T20:32:47.488Z,57.66
2023-05-02T20:35:14.108Z,58.70
2023-05-02T20:37:41.242Z,57.55
2023-05-02T20:40:10.005Z,57.98
2023-05-02T20:42:38.560Z,58.68
2023-05-02T20:45:07.349Z,57.63
2023-05-02T20:47:34.252Z,58.05
2023-05-02T20:50:01.879Z,57.61
2023-05-02T20:52:28.977Z,58.20
2023-05-02T20:54:56.020Z,58.64
2023-05-02T20:57:22.904Z,57.82
2023-05-02T20:59:49.570Z,57.47
2023-05-02T21:02:16.229Z,57.41
2023-05-02T21:04:42.943Z,57.30
2023-05-02T21:07:09.626Z,57.71
2023-05-02T21:09:36.240Z,57.10
2023-05-02T21:12:02.904Z,56.85
2023-05-02T21:14:29.604Z,56.79
2023-05-02T21:16:56.372Z,57.13
2023-05-02T21:19:22.978Z,56.64
2023-05-02T21:21:49.753Z,56.74
2023-05-02T21:24:16.429Z,57.80
2023-05-02T21:26:43.170Z,58.50
2023-05-02T21:29:11.004Z,57.82
2023-05-02T21:31:39.629Z,58.58
2023-05-02T21:34:06.549Z,59.53
2023-05-02T21:36:34.176Z,60.22
2023-05-02T21:39:00.830Z,59.93
2023-05-02T21:41:27.496Z,59.74
2023-05-02T21:43:54.369Z,59.17
2023-05-02T21:46:21.263Z,59.50
2023-05-02T21:48:48.417Z,60.73
2023-05-02T21:51:15.134Z,60.91
2023-05-02T21:53:41.927Z,60.99
2023-05-02T21:56:08.823Z,61.17
2023-05-02T21:58:35.673Z,61.04
2023-05-02T22:01:02.503Z,60.68
2023-05-02T22:03:31.042Z,61.20
2023-05-02T22:06:01.018Z,61.92
2023-05-02T22:08:27.899Z,62.43
2023-05-02T22:10:54.549Z,62.23
2023-05-02T22:13:21.319Z,62.25
2023-05-02T22:15:48.338Z,62.44
2023-05-02T22:18:16.703Z,63.02
2023-05-02T22:20:44.224Z,63.19
2023-05-02T22:23:11.422Z,64.21
2023-05-02T22:25:40.265Z,64.49
2023-05-02T22:28:07.208Z,65.25
2023-05-02T22:30:34.494Z,63.50
2023-05-02T22:33:01.918Z,63.17
2023-05-02T22:35:28.942Z,62.78
2023-05-02T22:37:58.507Z,61.70
2023-05-02T22:40:25.184Z,61.67
2023-05-02T22:42:51.876Z,61.02
2023-05-02T22:45:18.665Z,61.13
2023-05-02T22:47:45.920Z,61.08
2023-05-02T22:50:13.114Z,61.16
2023-05-02T22:52:39.821Z,61.58
2023-05-02T22:55:09.441Z,60.87
2023-05-02T22:57:37.145Z,61.70
2023-05-02T23:00:05.670Z,61.40
2023-05-02T23:02:32.642Z,61.77
2023-05-02T23:04:59.389Z,61.99
2023-05-02T23:07:26.346Z,62.29
2023-05-02T23:09:55.941Z,62.27
2023-05-02T23:12:22.568Z,62.27
2023-05-02T23:14:49.211Z,62.18
2023-05-02T23:17:15.920Z,61.60
2023-05-02T23:19:42.762Z,62.04
2023-05-02T23:22:09.434Z,62.42
2023-05-02T23:24:36.274Z,62.46
2023-05-02T23:27:03.873Z,62.41
2023-05-02T23:29:30.401Z,62.68
2023-05-02T23:31:57.461Z,62.95
2023-05-02T23:34:24.486Z,63.21
2023-05-02T23:36:51.812Z,62.51
2023-05-02T23:39:18.517Z,62.50
2023-05-02T23:41:45.160Z,62.87
2023-05-02T23:44:11.789Z,62.73
2023-05-02T23:46:38.706Z,62.84
2023-05-02T23:49:05.436Z,63.08
2023-05-02T23:51:32.304Z,63.30
2023-05-02T23:53:59.046Z,63.99
2023-05-02T23:56:26.182Z,64.19
2023-05-02T23:58:52.787Z,64.99
